Flight Track Log - Related Links

Times and Time Zones

All times are in EDT time to prevent confusion due to time zone crossing. See the FLG3863 flight status page for this flight to view local times or setup timezone preferences in your user account.


Time Position Orientation Groundspeed Altitude Reporting Facility
EDT Latitude Longitude Course Direction KTS MPH feet Rate Location/Type
Sat 03:32:15 PM 44.8778 -93.1792 101° East 155 178 1,600  Level FAA TRACON SMA TRACON (SMA)
Sat 03:32:35 PM 44.8750 -93.1592 100° East 165 190 1,800 1,350 Climbing FAA TRACON SMA TRACON (SMA)
Sat 03:32:55 PM 44.8714 -93.1300 102° East 191 220 2,500 2,100 Climbing FAA TRACON SMA TRACON (SMA)
Sat 03:33:15 PM 44.8675 -93.1050 78° East 210 242 3,200 1,902 Climbing FAA TRACON SMA TRACON (SMA)
Sat 03:33:36 PM 44.8714 -93.0786 48° Northeast 229 264 3,800 2,100 Climbing FAA TRACON SMA TRACON (SMA)
Sat 03:33:55 PM 44.8886 -93.0517 43° Northeast 244 281 4,600 2,462 Climbing FAA TRACON SMA TRACON (SMA)
Sat 03:34:15 PM 44.9047 -93.0303 46° Northeast 254 292 5,400 2,400 Climbing FAA TRACON SMA TRACON (SMA)
Sat 03:34:35 PM 44.9206 -93.0072 41° Northeast 263 303 6,200 2,400 Climbing FAA TRACON SMA TRACON (SMA)
Sat 03:34:55 PM 44.9428 -92.9797 35° Northeast 275 316 7,000 2,341 Climbing FAA TRACON SMA TRACON (SMA)
Sat 03:35:16 PM 44.9625 -92.9603 36° Northeast 282 325 7,800 2,550 Climbing FAA TRACON SMA TRACON (SMA)
Sat 03:35:35 PM 44.9822 -92.9400 36° Northeast 283 326 8,700 2,769 Climbing FAA TRACON SMA TRACON (SMA)
Sat 03:35:55 PM 45.0067 -92.9147 37° Northeast 283 326 9,600 2,250 Climbing FAA TRACON SMA TRACON (SMA)
Sat 03:36:15 PM 45.0267 -92.8933 37° Northeast 291 335 10,200 1,171 Climbing FAA TRACON SMA TRACON (SMA)
Sat 03:36:36 PM 45.0481 -92.8708 44° Northeast 304 350 10,400 585 Climbing FAA TRACON SMA TRACON (SMA)
Sat 03:36:56 PM 45.0742 -92.8353 58° Northeast 338 389 10,600 1,050 Climbing FAA TRACON SMA TRACON (SMA)
Sat 03:37:16 PM 45.0903 -92.7986 57° Northeast 355 409 11,100 1,650 Climbing FAA TRACON SMA TRACON (SMA)
Sat 03:37:36 PM 45.1069 -92.7625 59° Northeast 358 412 11,700 2,154 Climbing FAA TRACON SMA TRACON (SMA)
Sat 03:37:55 PM 45.1269 -92.7161 60° Northeast 359 413 12,500 2,154 Climbing FAA TRACON SMA TRACON (SMA)
Sat 03:38:15 PM 45.1425 -92.6786 58° Northeast 360 414 13,100 1,902 Climbing FAA TRACON SMA TRACON (SMA)
Sat 03:38:36 PM 45.1625 -92.6325 59° Northeast 359 413 13,800 1,756 Climbing FAA TRACON SMA TRACON (SMA)
Sat 03:38:56 PM 45.1786 -92.5944 57° Northeast 363 418 14,300 1,385 Climbing FAA TRACON SMA TRACON (SMA)
Sat 03:39:15 PM 45.1956 -92.5569 62° Northeast 367 422 14,700 1,077 Climbing FAA TRACON SMA TRACON (SMA)
Sat 03:39:35 PM 45.2106 -92.5169 58° Northeast 372 428 15,000 1,171 Climbing FAA TRACON SMA TRACON (SMA)
Sat 03:39:56 PM 45.2322 -92.4683 58° Northeast 378 435 15,500 1,350 Climbing FAA TRACON SMA TRACON (SMA)
Sat 03:40:15 PM 45.2497 -92.4292 57° Northeast 381 438 15,900 1,077 Climbing FAA TRACON SMA TRACON (SMA)
Sat 03:40:35 PM 45.2675 -92.3900 58° Northeast 384 442 16,200 1,171 Climbing FAA TRACON SMA TRACON (SMA)
Sat 03:40:56 PM 45.2894 -92.3403 58° Northeast 387 445 16,700 1,317 Climbing FAA TRACON SMA TRACON (SMA)
Sat 03:41:16 PM 45.3072 -92.3003 52° Northeast 389 448 17,100 1,200 Climbing FAA TRACON SMA TRACON (SMA)
Sat 03:41:36 PM 45.3328 -92.2533 57° Northeast 390 449 17,500 1,050 Climbing FAA TRACON SMA TRACON (SMA)
Sat 03:41:56 PM 45.3511 -92.2128 55° Northeast 393 452 17,800 1,024 Climbing FAA TRACON SMA TRACON (SMA)
Sat 03:42:17 PM 45.3703 -92.1736 54° Northeast 394 453 18,200 1,171 Climbing FAA TRACON SMA TRACON (SMA)
Sat 03:42:37 PM 45.3953 -92.1253 54° Northeast 395 455 18,600 1,200 Climbing FAA TRACON SMA TRACON (SMA)
Sat 03:42:57 PM 45.4150 -92.0864 52° Northeast 394 453 19,000 1,231 Climbing FAA TRACON SMA TRACON (SMA)
Sat 03:43:16 PM 45.4358 -92.0483 67° East 395 455 19,400 1,091 Climbing FAA TRACON SMA TRACON (SMA)
Sat 03:43:41 PM 45.4517 -91.9961 53° Northeast 393 452 19,800 1,034 Climbing Minneapolis Center
Sat 03:44:43 PM 45.5178 -91.8711 56° Northeast 395 455 20,900 871 Climbing Minneapolis Center
Sat 03:45:45 PM 45.5803 -91.7386 59° Northeast 401 461 21,600 677 Climbing Minneapolis Center
Sat 03:46:47 PM 45.6408 -91.5969 93° East 412 474 22,300 774 Climbing Minneapolis Center
Sat 03:47:49 PM 45.6319 -91.3917 104° East 445 512 23,200 768 Climbing Minneapolis Center
Sat 03:48:52 PM 45.6031 -91.2317 104° East 448 516 23,900 672 Climbing Minneapolis Center
Sat 03:49:54 PM 45.5725 -91.0586 104° East 449 517 24,600 677 Climbing Minneapolis Center
Sat 03:50:56 PM 45.5411 -90.8847 105° East 452 520 25,300 726 Climbing Minneapolis Center
Sat 03:51:58 PM 45.5022 -90.6758 104° East 455 524 26,100 726 Climbing Minneapolis Center
Sat 03:53:00 PM 45.4706 -90.5017 105° East 456 525 26,800 629 Climbing Minneapolis Center
Sat 03:54:02 PM 45.4381 -90.3289 105° East 455 524 27,400 532 Climbing Minneapolis Center
Sat 03:55:04 PM 45.4047 -90.1542 105° East 458 527 27,900 484 Climbing Minneapolis Center
Sat 03:56:06 PM 45.3714 -89.9794 105° East 459 528 28,400 532 Climbing Minneapolis Center
Sat 03:57:08 PM 45.3311 -89.7689 105° East 462 532 29,000 532 Climbing Minneapolis Center
Sat 03:58:10 PM 45.2969 -89.5917 106° East 465 535 29,500 484 Climbing Minneapolis Center
Sat 03:59:12 PM 45.2617 -89.4150 105° East 467 537 30,000 484 Climbing Minneapolis Center
Sat 04:00:14 PM 45.2275 -89.2372 106° East 469 540 30,500 480 Climbing Minneapolis Center
Sat 04:01:17 PM 45.1925 -89.0608 106° East 469 540 31,000 240 Climbing Minneapolis Center
Sat 04:02:19 PM 45.1567 -88.8828 106° East 471 542 31,000  Level Minneapolis Center
Sat 04:03:21 PM 45.1114 -88.6650 106° East 479 551 31,000  Level Minneapolis Center
Sat 04:04:23 PM 45.0767 -88.4925 106° East 485 558 31,000  Level Minneapolis Center
Sat 04:05:25 PM 45.0386 -88.3064 106° East 491 565 31,000  Level Minneapolis Center
Sat 04:06:27 PM 44.9997 -88.1206 107° East 494 568 31,000  Level Minneapolis Center
Sat 04:07:29 PM 44.9525 -87.8967 106° East 496 571 31,000  Level Minneapolis Center
Sat 04:08:31 PM 44.9142 -87.7119 107° East 494 568 31,000  Level Minneapolis Center
Sat 04:09:34 PM 44.8747 -87.5253 108° East 496 571 31,000  Level Minneapolis Center
Sat 04:10:36 PM 44.8325 -87.3383 107° East 501 577 31,000  Level Minneapolis Center
Sat 04:11:38 PM 44.7922 -87.1539 107° East 497 572 31,000  Level Minneapolis Center
Sat 04:12:40 PM 44.7433 -86.9331 107° East 496 571 31,000  Level Minneapolis Center
Sat 04:13:42 PM 44.7061 -86.7639 107° East 496 571 31,000  Level Minneapolis Center
Sat 04:14:44 PM 44.6614 -86.5650 108° East 497 572 31,000  Level Minneapolis Center
Sat 04:15:47 PM 44.6200 -86.3847 108° East 493 567 31,000  Level Minneapolis Center
Sat 04:16:49 PM 44.5708 -86.1683 108° East 494 568 31,000  Level Minneapolis Center
Sat 04:17:51 PM 44.5289 -85.9892 108° East 493 567 31,000  Level Minneapolis Center
Sat 04:18:54 PM 44.4875 -85.8106 108° East 491 565 31,000  Level Minneapolis Center
Sat 04:19:56 PM 44.4453 -85.6331 108° East 487 560 31,000  Level Minneapolis Center
Sat 04:20:58 PM 44.3958 -85.4206 108° East 484 557 31,000  Level Minneapolis Center
Sat 04:22:01 PM 44.3542 -85.2428 108° East 484 557 31,000  Level Minneapolis Center
Sat 04:23:03 PM 44.3117 -85.0658 109° East 483 556 31,000  Level Minneapolis Center
Sat 04:24:05 PM 44.2686 -84.8903 109° East 482 555 31,000  Level Minneapolis Center
Sat 04:25:08 PM 44.2256 -84.7147 109° East 481 554 31,000  Level Minneapolis Center
Sat 04:26:10 PM 44.1747 -84.5053 109° East 478 550 31,000  Level Minneapolis Center
Sat 04:27:12 PM 44.1308 -84.3311 132° Southeast 478 550 31,000  Level Minneapolis Center
Sat 04:27:35 PM 44.1000 -84.2833 103° East 480 552 31,000  Level Toronto Center
Sat 04:28:35 PM 44.0667 -84.0833 108° East 480 552 31,000  Level Toronto Center
Sat 04:29:17 PM 44.0433 -83.9817 109° East 479 551 31,000  Level Minneapolis Center
Sat 04:30:19 PM 43.9992 -83.8075 109° East 480 552 31,000  Level Minneapolis Center
Sat 04:31:22 PM 43.9464 -83.5983 117° Southeast 479 551 31,000  Level Minneapolis Center
Sat 04:32:35 PM 43.8667 -83.3833 105° East 480 552 31,000  Level Toronto Center
Sat 04:33:35 PM 43.8333 -83.2167 111° Southeast 480 552 31,000  Level Toronto Center
Sat 04:34:35 PM 43.7833 -83.0333 112° Southeast 480 552 31,000 -300 Level Toronto Center
Sat 04:35:35 PM 43.7333 -82.8667 112° Southeast 480 552 30,400 -800 Descending Toronto Center
Sat 04:36:35 PM 43.6833 -82.7000 104° East 490 564 29,400 -700 Descending Toronto Center
Sat 04:37:35 PM 43.6500 -82.5167 105° East 490 564 29,000 -220 Descending Toronto Center
Sat 04:38:24 PM 43.6236 -82.3839 111° Southeast 477 549 29,000  Level Cleveland Center
Sat 04:39:24 PM 43.5800 -82.2281 111° Southeast 456 525 29,000  Level Cleveland Center
Sat 04:40:24 PM 43.5364 -82.0722 110° East 441 507 29,000 -824 Level Cleveland Center
Sat 04:41:35 PM 43.4833 -81.8667 112° Southeast 440 506 27,200 -1,557 Descending Toronto Center
Sat 04:42:35 PM 43.4333 -81.7000 117° Southeast 460 529 25,600 -1,750 Descending Toronto Center
Sat 04:43:35 PM 43.3833 -81.5667 104° East 460 529 23,700 -2,050 Descending Toronto Center
Sat 04:44:35 PM 43.3500 -81.3833 90° East 450 518 21,500 -2,100 Descending Toronto Center
Sat 04:45:35 PM 43.3500 -81.2167 82° East 440 506 19,500 -2,050 Descending Toronto Center
Sat 04:46:35 PM 43.3667 -81.0500 80° East 420 483 17,400 -2,050 Descending Toronto Center
Sat 04:47:35 PM 43.3833 -80.9167 71° East 380 437 15,400 -1,750 Descending Toronto Center
Sat 04:48:35 PM 43.4167 -80.7833 90° East 360 414 13,900 -1,550 Descending Toronto Center
Sat 04:49:35 PM 43.4167 -80.6667 79° East 320 368 12,300 -1,550 Descending Toronto Center
Sat 04:50:35 PM 43.4333 -80.5500 79° East 300 345 10,800 -1,650 Descending Toronto Center
Sat 04:51:35 PM 43.4500 -80.4333 90° East 280 322 9,000 -1,700 Descending Toronto Center
Sat 04:52:35 PM 43.4500 -80.3500 77° East 270 311 7,400 -1,000 Descending Toronto Center
Sat 04:53:35 PM 43.4667 -80.2500 75° East 250 288 7,000 -200 Descending Toronto Center
Sat 04:54:35 PM 43.4833 -80.1667 77° East 250 288 7,000 -350 Level Toronto Center
Sat 04:55:35 PM 43.5000 -80.0667 75° East 250 288 6,300 -1,100 Descending Toronto Center
Sat 04:56:35 PM 43.5167 -79.9833 71° East 240 276 4,800 -1,450 Descending Toronto Center
Sat 04:57:35 PM 43.5333 -79.9167 77° East 230 265 3,400 -900 Descending Toronto Center
Sat 04:58:35 PM 43.5500 -79.8167 55° Northeast 220 253 3,000 -400 Descending Toronto Center
Sat 04:59:35 PM 43.5833 -79.7500 36° Northeast 210 242 2,600 -650 Descending Toronto Center
Sat 05:00:35 PM 43.6333 -79.7000 65° Northeast 190 219 1,700 -800 Descending Toronto Center
Sat 05:01:35 PM 43.6500 -79.6500 36° Northeast 150 173 1,000 -550 Descending Toronto Center
Sat 05:02:35 PM 43.6667 -79.6333 36° Northeast 130 150 600 -400 Descending Toronto Center

Login

Don't have an account? Register now (free) for customized features, flight alerts, and more!